Time;durP1;ratioP1;P1;durP2;ratioP2;P2;SDS_P1;SDS_P2;PMS_P1;PMS_P2;Temp;Humidity;BMP_temperature;BMP_pressure;BME280_temperature;BME280_humidity;BME280_pressure;Samples;Min_cycle;Max_cycle;Signal;HPM_P1;HPM_P2
2022/03/29 00:00:07;;;;;;;17.37;13.57;;;8.40;46.10;;;7.03;53.33;97743.97;4990030;28;20578;-75
2022/03/29 00:02:34;;;;;;;16.60;12.10;;;8.30;46.00;;;6.99;53.95;97728.47;4995249;28;20550;-74
2022/03/29 00:05:04;;;;;;;17.57;12.17;;;8.30;46.10;;;6.99;53.51;97731.16;4992327;28;20495;-74
2022/03/29 00:07:33;;;;;;;15.80;12.33;;;8.30;46.20;;;6.97;53.79;97731.34;5000428;28;20475;-75
2022/03/29 00:10:01;;;;;;;14.60;12.33;;;8.20;46.30;;;6.94;53.58;97729.88;5000290;28;20531;-74
2022/03/29 00:12:28;;;;;;;17.23;12.30;;;8.20;46.30;;;6.87;53.93;97723.66;5012528;28;21245;-76
2022/03/29 00:14:55;;;;;;;16.43;12.43;;;8.20;46.30;;;6.77;53.97;97726.72;4996675;28;20507;-74
2022/03/29 00:17:22;;;;;;;15.53;12.03;;;8.10;46.30;;;6.79;53.91;97716.59;5001051;28;20472;-73
2022/03/29 00:19:50;;;;;;;20.07;13.00;;;8.10;46.40;;;6.77;53.89;97709.75;4999294;28;20471;-73
2022/03/29 00:22:18;;;;;;;15.77;12.20;;;8.00;46.40;;;6.68;53.96;97708.28;5001982;28;20503;-74
2022/03/29 00:24:45;;;;;;;16.07;12.60;;;8.00;46.50;;;6.68;54.70;97709.09;5000427;28;20474;-74
2022/03/29 00:27:12;;;;;;;18.87;12.50;;;8.00;46.60;;;6.69;54.72;97705.38;5015992;28;20479;-74
2022/03/29 00:29:39;;;;;;;17.83;12.13;;;7.90;46.70;;;6.71;54.76;97706.00;4999500;28;20451;-73
2022/03/29 00:32:07;;;;;;;20.07;12.50;;;7.90;46.80;;;6.66;54.42;97711.97;5001489;28;20483;-74
2022/03/29 00:34:36;;;;;;;18.47;12.17;;;7.90;46.80;;;6.68;54.46;97701.03;4999763;28;20564;-75
2022/03/29 00:37:04;;;;;;;18.77;13.50;;;7.90;46.70;;;6.60;54.68;97688.63;4999764;28;20471;-76
2022/03/29 00:39:32;;;;;;;17.03;12.10;;;7.90;46.80;;;6.62;54.10;97688.44;4998516;28;20517;-75
2022/03/29 00:42:00;;;;;;;16.03;12.80;;;7.90;46.80;;;6.58;55.14;97700.56;5011598;28;20564;-75
2022/03/29 00:44:36;;;;;;;16.33;12.10;;;7.90;46.90;;;6.45;55.37;97690.59;5000172;28;20470;-75
2022/03/29 00:47:04;;;;;;;17.93;12.57;;;7.80;47.00;;;6.54;54.81;97697.47;5013417;28;20508;-75
2022/03/29 00:49:30;;;;;;;18.17;13.07;;;7.80;47.10;;;5.98;55.00;97607.06;5001400;28;20454;-76
2022/03/29 00:52:01;;;;;;;18.63;13.53;;;7.80;47.10;;;6.43;55.06;97693.47;4996556;28;20452;-74
2022/03/29 00:54:33;;;;;;;17.13;12.27;;;7.70;47.30;;;6.43;54.84;97690.78;5014124;28;20539;-75
2022/03/29 00:57:04;;;;;;;16.67;12.40;;;7.70;47.20;;;6.37;55.43;97680.84;4999303;28;20566;-75
2022/03/29 00:59:32;;;;;;;18.07;12.90;;;7.60;47.30;;;6.31;55.86;97678.94;5012762;28;20847;-76
2022/03/29 01:02:00;;;;;;;17.30;12.10;;;7.60;47.30;;;6.28;55.29;97677.47;4998380;28;20459;-75
2022/03/29 01:04:28;;;;;;;17.53;11.60;;;7.60;47.40;;;6.25;56.21;97672.50;4996001;28;20457;-75
2022/03/29 01:06:58;;;;;;;16.90;11.80;;;7.60;47.50;;;6.24;55.73;97670.84;4998177;28;20505;-75
2022/03/29 01:09:26;;;;;;;15.30;12.17;;;7.60;47.60;;;6.20;56.28;97669.56;4998701;28;20461;-74
2022/03/29 01:11:55;;;;;;;17.47;12.50;;;7.50;47.70;;;6.24;56.32;97654.75;4998582;28;20463;-75
2022/03/29 01:14:23;;;;;;;17.93;12.27;;;7.50;47.80;;;6.24;56.05;97660.94;4998545;28;20470;-76
2022/03/29 01:19:36;;;;;;;18.00;13.37;;;7.50;47.90;;;6.19;55.83;97647.28;5012073;28;20589;-74
2022/03/29 01:22:09;;;;;;;17.10;11.93;;;7.50;47.90;;;6.10;56.85;97643.09;5014565;28;20466;-75
2022/03/29 01:24:37;;;;;;;16.07;11.20;;;7.40;48.00;;;6.08;56.80;97637.09;4996234;28;20595;-74
2022/03/29 01:27:07;;;;;;;14.30;12.17;;;7.40;48.20;;;6.05;57.13;97634.81;4999332;28;20582;-75
2022/03/29 01:29:37;;;;;;;19.63;12.07;;;7.40;48.30;;;5.95;56.78;97622.53;5000931;28;20458;-73
2022/03/29 01:32:06;;;;;;;20.57;12.53;;;7.30;48.40;;;6.03;57.57;97631.50;5000554;28;20537;-74
2022/03/29 01:34:37;;;;;;;19.87;12.80;;;7.30;48.50;;;5.91;57.35;97623.13;5005765;28;20466;-74
2022/03/29 01:37:07;;;;;;;18.23;11.67;;;7.30;48.70;;;5.93;57.22;97626.47;5000382;28;20470;-74
2022/03/29 01:39:35;;;;;;;18.10;12.30;;;7.20;48.70;;;5.90;57.56;97619.63;5007422;28;20452;-75
2022/03/29 01:42:03;;;;;;;17.17;13.10;;;7.20;48.90;;;5.88;57.60;97624.34;5003286;28;20455;-74
2022/03/29 01:44:30;;;;;;;21.17;12.50;;;7.20;49.10;;;5.86;58.22;97621.03;5015300;28;20497;-73
2022/03/29 01:46:57;;;;;;;22.00;12.77;;;7.20;49.10;;;5.83;58.38;97624.09;5004307;28;22409;-73
2022/03/29 01:49:25;;;;;;;16.80;13.00;;;7.10;49.20;;;5.76;58.89;97615.19;5000905;28;20463;-74
2022/03/29 01:51:53;;;;;;;16.20;11.27;;;7.10;49.40;;;5.84;58.60;97606.16;5020637;28;20459;-72
2022/03/29 01:54:21;;;;;;;15.10;11.83;;;7.10;49.50;;;5.75;59.07;97610.84;4999550;28;20779;-73
2022/03/29 01:56:48;;;;;;;16.87;12.27;;;7.10;49.70;;;5.64;59.64;97604.97;5009011;28;20973;-73
2022/03/29 01:59:16;;;;;;;17.73;12.50;;;7.00;49.70;;;5.58;59.47;97599.56;5005410;28;20463;-72
2022/03/29 02:01:45;;;;;;;17.83;13.00;;;7.00;49.90;;;4.89;59.08;97475.97;5004734;28;21162;-73
2022/03/29 02:04:13;;;;;;;16.43;12.60;;;7.00;49.90;;;5.67;59.00;97601.91;4997529;28;21262;-73
2022/03/29 02:06:40;;;;;;;19.97;14.30;;;7.00;49.90;;;5.85;58.96;97603.31;5004072;28;21276;-73
2022/03/29 02:09:08;;;;;;;17.33;11.73;;;7.00;50.10;;;5.81;58.50;97596.66;5003613;28;20850;-73
2022/03/29 02:11:38;;;;;;;17.57;12.50;;;7.10;50.00;;;5.78;59.01;97592.53;5002625;28;21050;-74
2022/03/29 02:14:05;;;;;;;19.83;12.73;;;7.10;50.10;;;5.79;58.98;97587.97;5002497;28;20561;-73
2022/03/29 02:16:33;;;;;;;16.83;12.20;;;7.10;50.10;;;5.71;58.80;97590.81;5006972;28;20542;-73
2022/03/29 02:19:00;;;;;;;18.57;12.60;;;7.10;50.10;;;5.73;59.25;97591.44;5001374;28;20462;-73
2022/03/29 02:21:27;;;;;;;20.73;13.57;;;7.10;50.20;;;5.73;59.33;97589.59;4999543;28;20461;-73
2022/03/29 02:23:54;;;;;;;19.27;12.43;;;7.10;50.30;;;5.73;59.63;97580.72;4996532;28;21015;-74
2022/03/29 02:26:21;;;;;;;16.40;12.80;;;7.00;50.60;;;5.71;59.06;97572.06;4994820;28;20522;-74
2022/03/29 02:28:49;;;;;;;17.43;13.00;;;7.00;50.30;;;5.67;59.85;97583.16;4998666;28;20574;-74
2022/03/29 02:31:16;;;;;;;16.60;13.07;;;7.00;50.40;;;5.58;59.57;97578.97;5000991;28;20490;-74
2022/03/29 02:33:44;;;;;;;18.80;13.30;;;7.00;50.60;;;5.62;59.98;97576.72;5001894;28;20477;-73
2022/03/29 02:36:13;;;;;;;16.67;13.20;;;6.90;50.80;;;5.55;59.96;97570.47;4999129;28;20899;-73
2022/03/29 02:38:39;;;;;;;19.80;12.83;;;6.90;50.50;;;5.44;60.32;97563.81;5003707;28;20459;-73
2022/03/29 02:41:06;;;;;;;22.63;14.07;;;6.80;50.80;;;5.48;60.37;97549.00;5015230;28;20449;-73
2022/03/29 02:43:33;;;;;;;22.43;13.77;;;6.80;51.00;;;5.55;60.58;97557.91;5001587;28;21040;-73
2022/03/29 02:46:03;;;;;;;19.60;13.17;;;6.80;51.00;;;5.43;59.76;97549.56;4994204;28;20459;-74
2022/03/29 02:48:31;;;;;;;20.20;14.10;;;6.80;51.10;;;5.43;59.86;97554.91;5017649;28;20491;-74
2022/03/29 02:50:58;;;;;;;17.60;13.23;;;6.70;51.10;;;5.53;60.72;97551.91;5011778;28;20595;-74
2022/03/29 02:53:25;;;;;;;20.50;13.43;;;6.70;51.30;;;5.63;59.25;97540.88;5013357;28;20454;-74
2022/03/29 02:55:52;;;;;;;17.33;13.47;;;6.90;51.20;;;5.62;60.22;97556.09;4996340;28;20569;-75
2022/03/29 02:58:19;;;;;;;19.97;13.00;;;6.90;51.10;;;5.63;59.30;97539.00;4997501;28;20516;-74
2022/03/29 03:00:46;;;;;;;16.87;13.77;;;6.90;51.20;;;5.53;60.04;97558.09;5000027;28;20487;-74
2022/03/29 03:03:14;;;;;;;19.50;13.93;;;6.90;51.20;;;5.56;60.69;97546.19;4999637;28;20482;-73
2022/03/29 03:05:41;;;;;;;17.20;13.77;;;6.90;51.30;;;5.44;60.27;97532.47;5010883;28;20962;-73
2022/03/29 03:08:09;;;;;;;18.50;14.10;;;6.90;51.40;;;5.47;60.37;97541.97;5008950;28;22274;-74
2022/03/29 03:10:35;;;;;;;29.23;14.20;;;6.80;51.50;;;5.49;60.32;97534.56;5012866;28;20512;-74
2022/03/29 03:13:02;;;;;;;15.13;12.70;;;6.80;51.60;;;5.43;61.10;97540.72;4997645;28;20466;-73
2022/03/29 03:15:30;;;;;;;20.80;14.23;;;6.80;51.70;;;5.39;60.79;97533.06;5000677;28;20462;-73
2022/03/29 03:17:58;;;;;;;18.83;13.43;;;6.70;51.80;;;5.38;60.97;97539.44;5014865;28;20451;-73
2022/03/29 03:20:26;;;;;;;16.57;13.43;;;6.70;52.00;;;5.25;61.99;97534.78;4998295;28;20475;-74
2022/03/29 03:22:53;;;;;;;20.20;13.90;;;6.60;52.20;;;5.24;61.75;97537.69;5000843;28;20458;-74
2022/03/29 03:25:20;;;;;;;22.33;14.70;;;6.60;52.50;;;5.22;61.92;97550.41;4997792;28;20486;-73
2022/03/29 03:27:48;;;;;;;17.33;13.23;;;6.50;52.50;;;5.10;61.44;97524.19;5002646;28;21078;-74
2022/03/29 03:30:17;;;;;;;19.83;13.70;;;6.60;52.60;;;5.24;62.28;97540.38;5008801;28;20571;-73
2022/03/29 03:32:44;;;;;;;19.47;14.00;;;6.60;52.80;;;5.17;62.36;97542.97;5014470;28;20459;-74
2022/03/29 03:35:12;;;;;;;21.47;14.50;;;6.50;52.80;;;5.19;62.07;97538.25;5012678;28;20528;-73
2022/03/29 03:37:40;;;;;;;19.90;13.17;;;6.50;52.90;;;5.19;62.26;97530.22;5002465;28;20459;-74
2022/03/29 03:40:11;;;;;;;20.60;15.40;;;6.50;52.90;;;5.04;62.49;97516.88;5001055;28;20535;-74
2022/03/29 03:42:38;;;;;;;19.70;14.17;;;6.50;53.00;;;5.10;62.29;97524.19;4999177;28;20524;-74
2022/03/29 03:45:07;;;;;;;20.77;15.13;;;6.50;53.10;;;5.10;62.08;97528.69;5001048;28;20545;-74
2022/03/29 03:47:35;;;;;;;20.00;14.03;;;6.40;53.10;;;4.95;62.88;97510.03;4998629;28;20479;-74
2022/03/29 03:50:03;;;;;;;23.47;14.87;;;6.40;53.40;;;4.99;63.08;97523.84;4996894;28;20451;-73
2022/03/29 03:52:30;;;;;;;17.47;13.20;;;6.40;53.50;;;4.97;62.77;97516.81;5005068;28;21032;-75
2022/03/29 03:54:59;;;;;;;19.17;14.57;;;6.30;53.60;;;4.92;62.90;97505.03;5001029;28;20455;-75
2022/03/29 03:57:26;;;;;;;21.60;14.77;;;6.30;53.70;;;4.87;63.09;97502.13;5002476;28;20495;-74
2022/03/29 03:59:55;;;;;;;18.00;13.13;;;6.30;54.20;;;4.94;62.75;97503.03;4999107;28;21991;-73
2022/03/29 04:02:23;;;;;;;24.13;13.70;;;6.30;54.00;;;4.80;63.04;97480.63;4997485;28;20476;-73
2022/03/29 04:04:50;;;;;;;17.80;13.20;;;6.30;54.00;;;4.80;64.07;97505.56;4994239;28;20850;-73
2022/03/29 04:07:17;;;;;;;19.60;14.17;;;6.10;54.10;;;4.60;63.73;97475.91;5000819;28;20459;-73
2022/03/29 04:09:44;;;;;;;19.50;14.03;;;6.10;54.40;;;4.68;64.30;97501.72;5000195;28;20491;-74
2022/03/29 04:12:12;;;;;;;19.80;13.77;;;6.00;54.70;;;4.87;64.41;97505.63;5010108;28;20454;-74
2022/03/29 04:14:40;;;;;;;19.07;13.57;;;6.10;55.10;;;4.77;63.59;97497.88;5003653;28;20933;-73
2022/03/29 04:17:08;;;;;;;21.37;14.53;;;6.20;54.90;;;4.75;64.21;97501.78;4998657;28;20470;-73
2022/03/29 04:19:35;;;;;;;24.17;15.03;;;6.10;54.90;;;4.81;64.14;97512.56;5005520;28;20455;-73
2022/03/29 04:22:02;;;;;;;20.73;14.50;;;6.10;54.90;;;4.80;64.10;97500.22;4998842;28;21241;-73
2022/03/29 04:24:29;;;;;;;16.37;13.07;;;6.10;54.90;;;4.73;64.28;97511.88;4997707;28;21002;-73
2022/03/29 04:26:56;;;;;;;19.70;13.97;;;6.10;55.00;;;4.55;64.18;97499.75;4999790;28;20494;-73
2022/03/29 04:29:24;;;;;;;16.60;13.07;;;6.00;55.30;;;4.69;64.14;97506.06;5000460;28;20572;-73
2022/03/29 04:31:52;;;;;;;21.00;15.40;;;6.00;55.50;;;4.75;64.51;97507.97;5003582;28;20978;-72
2022/03/29 04:34:20;;;;;;;17.90;13.87;;;6.00;55.60;;;4.70;64.63;97499.69;5006394;28;20460;-73
2022/03/29 04:36:47;;;;;;;21.53;14.73;;;6.00;55.70;;;4.53;64.63;97493.75;5001774;28;20469;-74
2022/03/29 04:39:14;;;;;;;22.03;15.83;;;6.00;55.60;;;4.61;65.34;97511.53;4999087;28;20473;-72
2022/03/29 04:41:41;;;;;;;19.13;15.77;;;6.00;55.80;;;4.64;65.04;97497.78;5000688;28;20466;-71
2022/03/29 04:44:08;;;;;;;20.83;13.40;;;6.00;55.90;;;4.46;65.60;97512.41;4996716;28;20547;-71
2022/03/29 04:46:37;;;;;;;17.97;14.40;;;5.80;56.10;;;4.57;65.02;97499.56;5003256;28;20573;-72
2022/03/29 04:49:04;;;;;;;17.03;14.10;;;5.90;56.40;;;4.57;65.80;97500.38;5003219;28;20485;-70
2022/03/29 04:51:31;;;;;;;17.97;13.90;;;5.90;56.80;;;4.57;64.92;97494.19;4998705;28;20489;-72
2022/03/29 04:53:58;;;;;;;19.90;14.70;;;6.00;56.60;;;4.63;65.45;97493.47;5001752;28;20549;-72
2022/03/29 04:56:25;;;;;;;17.73;13.63;;;5.90;56.40;;;4.61;66.02;97495.47;4999529;28;20582;-72
2022/03/29 04:58:52;;;;;;;17.93;13.47;;;5.90;56.90;;;4.58;65.25;97495.84;5000085;28;20473;-72
2022/03/29 05:01:20;;;;;;;18.73;14.33;;;5.90;56.80;;;4.54;65.50;97490.88;5000018;28;20544;-72
2022/03/29 05:03:48;;;;;;;21.73;14.20;;;5.90;56.80;;;4.54;65.52;97496.25;5010689;28;20456;-72
2022/03/29 05:06:15;;;;;;;23.90;15.30;;;5.90;57.00;;;4.44;65.93;97487.69;4997184;28;20471;-75
2022/03/29 05:08:42;;;;;;;22.70;13.80;;;5.80;57.20;;;4.38;66.77;97475.88;5003660;28;20488;-71
2022/03/29 05:11:09;;;;;;;19.53;13.80;;;5.80;57.60;;;4.42;66.90;97484.38;5005619;28;20536;-71
2022/03/29 05:13:36;;;;;;;19.33;13.40;;;5.80;57.80;;;4.33;67.14;97482.84;5001286;28;20462;-71
2022/03/29 05:16:05;;;;;;;23.43;14.73;;;5.70;58.00;;;4.42;66.47;97479.03;5004815;28;21001;-71
2022/03/29 05:18:32;;;;;;;19.40;13.73;;;5.70;58.10;;;4.56;66.85;97481.84;5002299;28;20462;-71
2022/03/29 05:21:00;;;;;;;18.93;14.53;;;5.80;58.40;;;4.73;66.28;97472.53;5004150;28;20536;-69
2022/03/29 05:23:27;;;;;;;21.30;14.73;;;6.00;58.90;;;4.71;65.53;97471.91;5002506;28;20461;-70
2022/03/29 05:25:54;;;;;;;22.00;14.37;;;6.00;58.50;;;4.84;65.53;97473.88;5004184;28;20525;-70
2022/03/29 05:28:21;;;;;;;24.90;15.40;;;6.10;58.50;;;4.72;66.22;97476.25;5002480;28;20530;-71
2022/03/29 05:30:49;;;;;;;25.63;14.90;;;6.10;58.00;;;4.96;65.76;97471.53;4999731;28;20462;-71
2022/03/29 05:33:18;;;;;;;20.43;15.33;;;6.20;58.40;;;5.01;65.12;97473.63;5001735;28;20457;-72
2022/03/29 05:35:45;;;;;;;23.23;14.27;;;6.30;58.00;;;4.98;64.82;97474.84;5003429;28;21186;-70
2022/03/29 05:38:13;;;;;;;25.47;15.30;;;6.30;57.50;;;5.18;63.58;97474.16;5026157;28;20517;-73
2022/03/29 05:40:41;;;;;;;26.63;16.40;;;6.50;57.40;;;5.01;64.64;97454.88;5009146;28;20549;-71
2022/03/29 05:43:12;;;;;;;27.70;15.40;;;6.50;57.20;;;5.17;63.92;97480.53;4999671;28;20451;-72
2022/03/29 05:45:39;;;;;;;25.03;14.57;;;6.50;57.20;;;5.14;64.19;97483.59;4999564;28;20461;-71
2022/03/29 05:50:53;;;;;;;24.87;15.57;;;6.50;57.10;;;5.47;62.69;97472.31;5016614;28;20454;-73
2022/03/29 05:53:22;;;;;;;24.03;15.37;;;6.60;56.90;;;5.42;63.29;97482.78;5012162;28;20549;-72
2022/03/29 05:55:49;;;;;;;25.70;16.57;;;6.70;56.80;;;5.47;63.58;97481.19;5002536;28;20529;-74
2022/03/29 05:58:17;;;;;;;24.47;15.67;;;6.80;56.90;;;5.54;62.56;97446.41;5004886;28;20533;-72
2022/03/29 06:00:44;;;;;;;25.43;16.77;;;6.90;56.60;;;5.92;61.07;97475.44;5003027;28;20470;-75
2022/03/29 06:03:12;;;;;;;19.67;14.50;;;7.10;56.30;;;5.60;62.29;97475.06;4994858;28;20542;-72
2022/03/29 06:05:42;;;;;;;21.65;15.57;;;7.00;56.00;;;5.81;61.67;97471.47;5000087;28;20570;-71
2022/03/29 06:08:11;;;;;;;21.43;15.93;;;7.00;56.10;;;5.83;61.80;97484.66;5004313;28;20219;-71
2022/03/29 06:10:39;;;;;;;20.87;14.97;;;7.10;55.90;;;6.21;60.79;97468.19;4999720;28;20452;-73
2022/03/29 06:13:08;;;;;;;28.30;15.23;;;7.40;55.90;;;6.19;60.20;97475.59;5003789;28;20553;-73
2022/03/29 06:15:36;;;;;;;24.23;14.57;;;7.50;55.30;;;6.16;60.76;97473.34;4997341;28;20906;-73
2022/03/29 06:18:04;;;;;;;22.23;14.83;;;7.50;55.20;;;6.18;60.86;97467.75;5000532;28;20986;-73
2022/03/29 06:20:31;;;;;;;18.00;13.60;;;7.50;55.40;;;6.45;60.17;97473.22;5006305;28;20986;-75
2022/03/29 06:22:58;;;;;;;24.13;15.67;;;7.70;55.20;;;6.43;59.74;97464.53;5009744;28;20471;-73
2022/03/29 06:25:26;;;;;;;18.87;14.70;;;7.80;54.90;;;6.45;59.73;97483.94;5001975;28;20463;-74
2022/03/29 06:27:54;;;;;;;19.80;14.80;;;7.80;54.80;;;6.66;59.58;97474.91;5001633;28;20458;-71
2022/03/29 06:30:21;;;;;;;20.13;14.20;;;7.90;54.80;;;6.61;59.73;97478.19;5001348;28;20480;-74
2022/03/29 06:32:50;;;;;;;29.20;15.97;;;7.90;54.60;;;6.59;59.18;97466.00;4997307;28;20668;-74
2022/03/29 06:35:21;;;;;;;27.40;15.90;;;7.90;54.60;;;7.13;58.38;97474.97;4993624;28;20486;-74
2022/03/29 06:37:48;;;;;;;21.90;15.17;;;8.20;54.50;;;7.23;57.68;97469.19;5008097;28;20455;-73
2022/03/29 06:40:16;;;;;;;21.70;15.40;;;8.40;54.10;;;7.02;57.35;97409.25;5014468;28;21074;-72
2022/03/29 06:42:43;;;;;;;20.90;15.70;;;8.60;53.90;;;7.27;57.34;97456.97;5017367;28;20539;-75
2022/03/29 06:45:12;;;;;;;23.83;14.83;;;8.70;53.40;;;7.62;56.60;97456.72;5002147;28;20613;-74
2022/03/29 06:47:39;;;;;;;18.43;14.97;;;8.90;53.40;;;7.65;56.27;97467.03;4998665;28;20902;-69
2022/03/29 06:50:09;;;;;;;26.17;16.60;;;8.80;53.00;;;7.88;55.92;97464.91;5004042;28;20490;-74
2022/03/29 06:52:36;;;;;;;33.47;16.67;;;9.00;53.10;;;7.85;55.79;97470.72;5002307;28;20554;-68
2022/03/29 06:55:05;;;;;;;23.07;15.37;;;9.10;52.70;;;7.72;55.41;97424.00;5015286;28;20451;-72
2022/03/29 06:57:32;;;;;;;20.77;15.80;;;9.30;52.60;;;8.04;55.06;97463.63;5009079;28;20984;-75
2022/03/29 06:59:59;;;;;;;24.00;16.33;;;9.40;52.30;;;8.30;54.40;97462.69;5001157;28;20467;-72
2022/03/29 07:02:28;;;;;;;28.50;17.20;;;9.50;51.90;;;8.70;53.48;97463.56;5006641;28;20568;-72
2022/03/29 07:04:55;;;;;;;24.27;16.47;;;9.80;51.90;;;8.67;53.00;97408.25;5007674;28;20455;-68
2022/03/29 07:07:22;;;;;;;27.57;17.70;;;10.10;50.60;;;9.03;52.31;97460.63;5014656;28;20550;-75
2022/03/29 07:12:46;;;;;;;32.37;16.87;;;10.20;50.10;;;9.13;52.31;97459.28;5007826;28;21167;-74
2022/03/29 07:15:13;;;;;;;28.07;15.70;;;10.30;49.80;;;8.88;52.74;97454.75;5004177;28;20622;-75
2022/03/29 07:17:42;;;;;;;29.43;17.80;;;10.20;49.80;;;8.07;51.61;97280.25;5001557;28;20456;-69
2022/03/29 07:20:10;;;;;;;26.07;17.20;;;10.30;49.90;;;9.23;52.08;97454.25;5018312;28;20455;-75
2022/03/29 07:22:37;;;;;;;22.67;15.90;;;10.40;49.80;;;9.51;51.41;97466.44;5004383;28;20468;-69
2022/03/29 07:25:05;;;;;;;24.30;17.63;;;10.60;49.60;;;9.76;51.31;97458.31;5014314;28;20459;-77
2022/03/29 07:27:33;;;;;;;27.37;17.83;;;10.90;49.30;;;9.80;50.96;97447.91;4998953;28;20464;-74
2022/03/29 07:30:00;;;;;;;31.03;18.07;;;11.00;49.20;;;9.76;50.41;97406.22;5012963;28;20903;-72
2022/03/29 07:32:28;;;;;;;35.87;17.80;;;11.20;49.00;;;10.34;49.35;97463.44;4999673;28;20486;-73
2022/03/29 07:34:57;;;;;;;23.43;17.63;;;11.30;48.90;;;10.65;48.13;97463.50;4996202;28;20455;-73
2022/03/29 07:37:25;;;;;;;23.87;17.60;;;11.70;48.10;;;11.08;46.50;97451.63;5001878;28;20460;-73
2022/03/29 07:39:53;;;;;;;29.40;17.27;;;12.00;47.60;;;11.24;45.63;97441.19;4998480;28;20540;-74
2022/03/29 07:42:22;;;;;;;27.17;16.90;;;12.20;46.80;;;11.05;45.21;97436.69;5001140;28;20463;-74
2022/03/29 07:44:50;;;;;;;24.77;17.07;;;12.30;45.70;;;10.88;46.00;97441.13;4996663;28;20465;-74
2022/03/29 07:47:19;;;;;;;22.73;16.70;;;12.00;45.90;;;10.53;47.17;97439.97;4997355;28;20461;-71
2022/03/29 07:49:46;;;;;;;33.60;18.07;;;11.80;46.00;;;11.07;45.76;97438.34;5002147;28;21054;-74
2022/03/29 07:52:15;;;;;;;23.43;17.77;;;12.10;46.10;;;11.64;44.17;97431.53;5011506;28;20536;-73
2022/03/29 07:54:42;;;;;;;27.20;19.27;;;12.60;45.70;;;11.96;43.02;97425.72;5001734;28;20547;-74
2022/03/29 07:57:10;;;;;;;19.97;16.30;;;12.90;45.20;;;12.05;43.39;97443.25;4997204;28;20506;-76
2022/03/29 07:59:38;;;;;;;25.17;18.17;;;13.00;44.90;;;12.02;42.88;97439.16;4996064;28;20589;-74
2022/03/29 08:02:06;;;;;;;27.60;20.50;;;13.10;44.60;;;12.02;42.63;97432.91;5001755;28;20466;-74
2022/03/29 08:04:33;;;;;;;26.30;18.83;;;13.10;44.50;;;12.13;42.72;97440.19;5001157;28;20552;-76
2022/03/29 08:07:01;;;;;;;25.70;17.80;;;13.20;44.50;;;12.15;42.81;97440.75;5003961;28;20556;-72
2022/03/29 08:09:29;;;;;;;25.83;19.50;;;13.40;44.30;;;12.42;42.41;97437.50;5001214;28;20569;-72
2022/03/29 08:11:56;;;;;;;29.10;19.60;;;13.30;44.30;;;12.50;41.82;97440.88;5015794;28;20466;-73
2022/03/29 08:14:25;;;;;;;24.80;18.63;;;13.50;44.00;;;12.41;42.31;97446.69;5013347;28;20476;-71
2022/03/29 08:16:53;;;;;;;30.88;18.40;;;13.40;44.00;;;12.40;42.61;97450.47;5001527;28;20528;-71
2022/03/29 08:19:20;;;;;;;30.50;19.87;;;13.50;44.20;;;12.25;42.89;97450.16;5000054;28;20206;-74
2022/03/29 08:21:50;;;;;;;23.47;18.30;;;13.40;44.20;;;12.07;42.97;97445.72;5004934;28;20561;-71
2022/03/29 08:24:18;;;;;;;25.25;19.10;;;13.30;44.10;;;12.08;42.99;97437.38;5009512;28;20452;-76
2022/03/29 08:26:48;;;;;;;27.07;18.83;;;13.30;44.20;;;12.09;43.20;97444.44;5003715;28;20294;-71
2022/03/29 08:29:16;;;;;;;24.63;19.00;;;13.20;44.70;;;12.03;43.89;97440.81;4998139;28;21014;-73
2022/03/29 08:31:44;;;;;;;26.37;18.53;;;13.20;44.50;;;11.97;44.01;97439.00;4996158;28;20487;-72
2022/03/29 08:34:13;;;;;;;22.63;17.00;;;13.20;44.60;;;11.77;44.56;97431.28;5002887;28;20474;-72
2022/03/29 08:36:41;;;;;;;32.63;18.57;;;13.10;44.80;;;11.73;44.55;97435.50;5004071;28;20460;-72
2022/03/29 08:39:09;;;;;;;24.87;19.30;;;12.90;44.60;;;11.90;44.58;97436.44;4998832;28;20550;-73
2022/03/29 08:41:39;;;;;;;23.93;17.83;;;13.00;45.00;;;12.02;44.37;97439.16;4995820;28;20544;-72
2022/03/29 08:44:08;;;;;;;22.43;17.43;;;13.10;45.10;;;11.91;45.07;97434.56;4994795;28;20461;-72
2022/03/29 08:46:38;;;;;;;26.77;18.90;;;13.10;45.60;;;11.98;45.38;97432.56;4996360;28;20864;-73
2022/03/29 08:49:05;;;;;;;27.43;18.60;;;13.10;45.50;;;11.98;45.17;97426.31;4994309;28;20515;-76
2022/03/29 08:51:33;;;;;;;26.40;19.30;;;13.10;45.60;;;12.10;45.01;97435.25;4998838;28;20972;-72
2022/03/29 08:54:01;;;;;;;27.20;19.10;;;13.20;45.60;;;12.14;45.80;97435.59;4997960;28;20225;-75
2022/03/29 08:56:28;;;;;;;27.92;20.00;;;13.30;45.80;;;12.20;45.57;97429.22;4994708;28;20535;-68
2022/03/29 08:58:56;;;;;;;28.37;19.43;;;13.30;46.00;;;12.34;45.07;97424.31;4999684;28;20287;-74
2022/03/29 09:01:24;;;;;;;23.73;17.13;;;13.40;45.90;;;12.31;45.34;97419.41;4998481;28;20465;-72
2022/03/29 09:04:07;;;;;;;22.70;17.03;;;13.40;45.90;;;12.18;46.11;97426.72;5014761;28;21033;-72
2022/03/29 09:06:34;;;;;;;21.63;16.77;;;13.40;46.00;;;12.19;45.92;97417.53;5014796;28;20480;-74
2022/03/29 09:09:03;;;;;;;24.47;18.30;;;13.40;46.30;;;12.52;45.54;97419.81;4995039;28;20968;-71
2022/03/29 09:11:41;;;;;;;21.77;18.60;;;13.60;46.30;;;12.36;45.51;97416.81;5002042;28;20455;-73
2022/03/29 09:14:08;;;;;;;21.80;17.80;;;13.50;46.10;;;12.14;46.19;97420.16;5001009;28;20504;-73
2022/03/29 09:16:38;;;;;;;25.90;19.27;;;13.30;46.30;;;12.04;46.65;97398.28;4997427;28;20474;-74
2022/03/29 09:19:05;;;;;;;25.40;18.80;;;13.20;46.60;;;12.29;46.89;97416.13;5012337;28;20459;-74
2022/03/29 09:21:41;;;;;;;24.80;18.73;;;13.30;46.90;;;12.42;46.35;97413.13;4999470;28;20463;-76
2022/03/29 09:24:11;;;;;;;27.50;17.23;;;13.40;46.90;;;12.49;45.97;97414.84;4998075;28;20956;-74
2022/03/29 09:26:41;;;;;;;25.00;18.60;;;13.50;46.50;;;12.39;46.57;97410.06;5000761;28;21051;-73
2022/03/29 09:29:16;;;;;;;27.87;18.50;;;13.50;46.90;;;12.60;46.09;97401.25;4995940;28;20543;-72
2022/03/29 09:31:45;;;;;;;26.60;18.33;;;13.60;46.70;;;12.54;46.58;97406.84;4998527;28;20508;-69
2022/03/29 09:34:16;;;;;;;25.33;18.57;;;13.70;46.90;;;12.43;46.46;97403.94;5009776;28;21104;-73
2022/03/29 09:36:46;;;;;;;24.10;18.17;;;13.60;46.60;;;12.52;47.24;97398.94;5003727;28;20489;-71
2022/03/29 09:39:44;;;;;;;26.00;18.80;;;13.60;47.30;;;12.79;46.27;97397.50;5001123;28;20954;-73
2022/03/29 09:42:14;;;;;;;25.93;19.13;;;13.80;47.20;;;12.69;46.72;97390.84;4995363;28;20500;-74
2022/03/29 09:44:46;;;;;;;26.57;18.20;;;13.80;47.10;;;12.75;46.67;97397.97;4995396;28;20850;-72
2022/03/29 09:47:20;;;;;;;24.77;17.47;;;13.90;47.20;;;12.75;46.57;97400.69;4999106;28;20461;-72
2022/03/29 09:49:56;;;;;;;21.63;17.73;;;13.80;47.00;;;12.81;46.77;97393.47;4993684;28;20477;-72
2022/03/29 09:52:26;;;;;;;22.73;17.90;;;13.90;47.50;;;13.01;46.31;97392.16;4999391;28;20575;-73
2022/03/29 09:55:13;;;;;;;25.33;17.70;;;14.00;47.20;;;13.03;45.83;97404.41;5010847;28;20526;-74
2022/03/29 09:57:42;;;;;;;20.00;16.80;;;14.20;47.00;;;13.00;46.24;97391.34;5019369;28;20484;-69
2022/03/29 10:00:13;;;;;;;25.57;18.63;;;14.20;47.10;;;13.16;46.17;97392.41;5020602;28;20485;-71
2022/03/29 10:02:45;;;;;;;24.37;18.77;;;14.20;47.20;;;13.26;46.03;97394.44;5009137;28;20466;-69
2022/03/29 10:05:13;;;;;;;26.03;18.30;;;14.30;47.10;;;13.04;47.33;97395.22;5017288;28;20479;-72
2022/03/29 10:07:45;;;;;;;28.07;19.10;;;14.20;47.50;;;13.37;46.23;97389.19;5003239;28;20474;-69
2022/03/29 10:10:13;;;;;;;31.50;18.37;;;14.40;47.50;;;13.42;46.33;97383.81;5000506;28;20494;-72
2022/03/29 10:12:41;;;;;;;22.27;17.77;;;14.50;47.60;;;13.89;45.27;97382.59;5014303;28;20453;-69
2022/03/29 10:15:09;;;;;;;21.40;18.03;;;14.80;47.50;;;13.97;44.99;97373.16;4997261;28;20596;-71
2022/03/29 10:17:41;;;;;;;20.77;17.53;;;15.00;47.20;;;13.80;46.10;97368.63;5019483;28;21007;-71
2022/03/29 10:20:10;;;;;;;20.40;18.27;;;14.90;47.70;;;13.83;45.91;97373.53;5003728;28;20494;-72
2022/03/29 10:22:40;;;;;;;23.33;18.73;;;14.90;47.60;;;13.60;46.10;97342.03;5002552;28;20532;-72
2022/03/29 10:25:08;;;;;;;19.37;17.37;;;14.80;47.60;;;13.94;46.08;97368.25;5000093;28;20458;-73
2022/03/29 10:27:36;;;;;;;20.70;18.13;;;14.90;47.90;;;13.87;46.02;97358.38;5003431;28;21072;-72